createdAt,value
2022-10-11T00:16:32.739Z,10
2022-10-11T00:45:33.251Z,10
2022-10-11T01:14:20.123Z,11
2022-10-11T01:43:09.827Z,9
2022-10-11T02:11:59.392Z,9
2022-10-11T02:40:54.126Z,12
2022-10-11T03:09:48.462Z,13
2022-10-11T03:38:25.961Z,13
2022-10-11T04:07:12.459Z,14
2022-10-11T04:36:08.531Z,14
2022-10-11T05:04:37.713Z,18
2022-10-11T05:33:14.439Z,19
2022-10-11T06:01:46.989Z,16
2022-10-11T06:30:18.696Z,20
2022-10-11T06:58:54.626Z,24
2022-10-11T07:27:28.758Z,30
2022-10-11T07:56:04.657Z,32
2022-10-11T08:24:40.119Z,31
2022-10-11T08:53:36.709Z,29
2022-10-11T09:22:19.870Z,24
2022-10-11T09:50:52.470Z,13
2022-10-11T10:19:31.319Z,13
2022-10-11T10:48:10.618Z,14
2022-10-11T11:45:49.034Z,13
2022-10-11T12:13:59.186Z,11
2022-10-11T12:42:37.469Z,13
2022-10-11T13:11:17.211Z,13
2022-10-11T13:40:01.949Z,16
2022-10-11T14:08:21.156Z,13
2022-10-11T14:36:55.916Z,14
2022-10-11T15:05:34.462Z,16
2022-10-11T15:33:44.394Z,14
2022-10-11T16:02:14.868Z,16
2022-10-11T16:30:43.217Z,14
2022-10-11T16:59:23.339Z,16
2022-10-11T17:28:09.675Z,16
2022-10-11T17:56:53.696Z,18
2022-10-11T18:25:33.444Z,19
2022-10-11T18:54:21.581Z,17
2022-10-11T19:22:40.153Z,16
2022-10-11T19:51:27.715Z,13
2022-10-11T20:19:58.838Z,10
2022-10-11T20:51:10.072Z,10
